createdAt,value
2018-02-15T00:00:52.532Z,16.12
2018-02-15T00:03:21.299Z,21.12
2018-02-15T00:05:50.134Z,20.60
2018-02-15T00:08:18.994Z,20.52
2018-02-15T00:10:47.801Z,40.35
2018-02-15T00:13:16.658Z,21.05
2018-02-15T00:15:45.483Z,17.33
2018-02-15T00:18:14.342Z,17.67
2018-02-15T00:20:43.927Z,16.45
2018-02-15T00:23:12.757Z,50.75
2018-02-15T00:25:41.609Z,18.83
2018-02-15T00:28:10.131Z,19.37
2018-02-15T00:30:38.966Z,48.92
2018-02-15T00:33:07.833Z,16.95
2018-02-15T00:35:36.658Z,15.30
2018-02-15T00:38:05.494Z,20.15
2018-02-15T00:40:34.327Z,25.85
2018-02-15T00:43:03.153Z,30.27
2018-02-15T00:45:31.998Z,19.00
2018-02-15T00:48:01.604Z,19.35
2018-02-15T00:50:30.499Z,19.05
2018-02-15T00:52:59.329Z,23.05
2018-02-15T00:55:28.210Z,19.15
2018-02-15T00:57:57.047Z,19.02
2018-02-15T01:00:25.895Z,23.80
2018-02-15T01:02:54.726Z,18.90
2018-02-15T01:05:23.577Z,21.62
2018-02-15T01:07:52.416Z,18.75
2018-02-15T01:10:21.237Z,18.85
2018-02-15T01:12:50.040Z,17.52
2018-02-15T01:15:18.977Z,20.08
2018-02-15T01:17:47.798Z,18.90
2018-02-15T01:20:16.690Z,19.10
2018-02-15T01:22:45.519Z,19.23
2018-02-15T01:25:14.347Z,18.25
2018-02-15T01:27:43.957Z,20.08
2018-02-15T01:30:12.802Z,18.33
2018-02-15T01:32:41.627Z,19.08
2018-02-15T01:35:10.445Z,19.15
2018-02-15T01:37:39.286Z,19.48
2018-02-15T01:40:08.123Z,19.10
2018-02-15T01:42:36.979Z,20.08
2018-02-15T01:45:05.834Z,22.17
2018-02-15T01:47:34.707Z,22.52
2018-02-15T01:50:04.460Z,20.58
2018-02-15T01:52:33.334Z,20.98
2018-02-15T01:55:02.123Z,20.70
2018-02-15T01:57:30.971Z,20.80
2018-02-15T01:59:59.798Z,20.70
2018-02-15T02:02:28.593Z,21.67
2018-02-15T02:04:57.418Z,21.05
2018-02-15T02:07:26.193Z,22.65
2018-02-15T02:09:54.715Z,21.87
2018-02-15T02:12:23.550Z,22.37
2018-02-15T02:14:52.142Z,22.70
2018-02-15T02:17:20.970Z,20.90
2018-02-15T02:19:49.189Z,23.03
2018-02-15T02:22:17.784Z,22.43
2018-02-15T02:24:46.627Z,22.10
2018-02-15T02:27:15.168Z,21.27
2018-02-15T02:29:44.778Z,21.45
2018-02-15T02:32:13.318Z,21.97
2018-02-15T02:34:41.868Z,20.80
2018-02-15T02:37:10.419Z,22.53
2018-02-15T02:39:38.976Z,21.97
2018-02-15T02:42:07.830Z,22.15
2018-02-15T02:44:36.687Z,23.30
2018-02-15T02:47:05.376Z,23.17
2018-02-15T02:49:33.948Z,22.87
2018-02-15T02:52:02.495Z,21.53
2018-02-15T02:54:31.033Z,23.17
2018-02-15T02:56:59.573Z,22.60
2018-02-15T02:59:28.902Z,22.50
2018-02-15T03:01:57.470Z,21.70
2018-02-15T03:04:26.033Z,22.43
2018-02-15T03:06:55.523Z,21.17
2018-02-15T03:09:24.078Z,23.13
2018-02-15T03:11:52.643Z,22.30
2018-02-15T03:14:21.201Z,22.20
2018-02-15T03:16:50.520Z,22.67
2018-02-15T03:19:19.079Z,21.27
2018-02-15T03:21:47.641Z,22.30
2018-02-15T03:24:16.158Z,23.37
2018-02-15T03:26:44.726Z,22.73
2018-02-15T03:29:13.986Z,20.63
2018-02-15T03:31:42.542Z,19.93
2018-02-15T03:34:11.382Z,21.25
2018-02-15T03:36:39.882Z,21.03
2018-02-15T03:39:09.169Z,21.40
2018-02-15T03:41:38.425Z,23.67
2018-02-15T03:44:07.003Z,23.80
2018-02-15T03:46:35.579Z,23.80
2018-02-15T03:49:04.162Z,23.00
2018-02-15T03:51:32.700Z,23.17
2018-02-15T03:54:01.227Z,22.37
2018-02-15T03:56:29.917Z,23.80
2018-02-15T03:58:58.499Z,21.67
2018-02-15T04:01:27.048Z,22.27
2018-02-15T04:03:56.378Z,23.53
2018-02-15T04:06:24.863Z,23.57
2018-02-15T04:08:53.409Z,23.60
2018-02-15T04:11:21.913Z,24.70
2018-02-15T04:13:50.503Z,23.93
2018-02-15T04:16:19.254Z,24.63
2018-02-15T04:18:47.785Z,24.33
2018-02-15T04:21:16.295Z,23.67
2018-02-15T04:23:44.814Z,23.03
2018-02-15T04:26:13.370Z,23.20
2018-02-15T04:28:41.922Z,20.27
2018-02-15T04:31:10.516Z,23.93
2018-02-15T04:33:39.086Z,21.27
2018-02-15T04:36:07.637Z,23.70
2018-02-15T04:38:36.222Z,23.63
2018-02-15T04:41:04.757Z,22.27
2018-02-15T04:43:33.311Z,23.17
2018-02-15T04:46:01.870Z,22.63
2018-02-15T04:48:30.644Z,21.93
2018-02-15T04:50:59.198Z,23.93
2018-02-15T04:53:27.777Z,22.90
2018-02-15T04:55:56.330Z,22.60
2018-02-15T04:58:24.899Z,22.80
2018-02-15T05:00:53.592Z,22.93
2018-02-15T05:03:22.162Z,23.47
2018-02-15T05:05:50.711Z,22.20
2018-02-15T05:08:20.014Z,22.33
2018-02-15T05:10:49.329Z,24.70
2018-02-15T05:13:17.863Z,23.87
2018-02-15T05:15:46.424Z,23.73
2018-02-15T05:18:14.986Z,24.30
2018-02-15T05:20:43.653Z,23.27
2018-02-15T05:23:12.962Z,24.27
2018-02-15T05:25:41.486Z,23.90
2018-02-15T05:28:10.058Z,23.23
2018-02-15T05:30:38.598Z,25.10
2018-02-15T05:33:07.850Z,24.07
2018-02-15T05:35:36.393Z,24.23
2018-02-15T05:38:04.950Z,23.57
2018-02-15T05:40:34.274Z,24.13
2018-02-15T05:43:02.822Z,25.07
2018-02-15T05:45:31.362Z,24.30
2018-02-15T05:48:00.185Z,24.97
2018-02-15T05:50:28.733Z,24.90
2018-02-15T05:52:57.339Z,24.03
2018-02-15T05:55:25.890Z,24.07
2018-02-15T05:57:54.402Z,22.80
2018-02-15T06:00:22.990Z,22.83
2018-02-15T06:02:51.504Z,22.37
2018-02-15T06:05:20.829Z,24.20
2018-02-15T06:07:49.392Z,24.47
2018-02-15T06:10:17.933Z,23.73
2018-02-15T06:12:46.510Z,20.57
2018-02-15T06:15:15.015Z,21.30
2018-02-15T06:17:43.570Z,23.57
2018-02-15T06:20:12.864Z,21.43
2018-02-15T06:22:41.375Z,23.83
2018-02-15T06:25:09.974Z,22.20
2018-02-15T06:27:38.476Z,20.33
2018-02-15T06:30:07.011Z,20.70
2018-02-15T06:32:35.571Z,21.83
2018-02-15T06:35:04.138Z,21.77
2018-02-15T06:37:32.704Z,22.50
2018-02-15T06:40:02.022Z,20.50
2018-02-15T06:42:30.769Z,18.90
2018-02-15T06:44:59.306Z,15.60
2018-02-15T06:47:27.820Z,22.93
2018-02-15T06:49:56.366Z,22.50
2018-02-15T06:52:24.876Z,22.53
2018-02-15T06:54:53.440Z,23.57
2018-02-15T06:57:21.795Z,22.80
2018-02-15T06:59:50.355Z,25.27
2018-02-15T07:02:19.708Z,22.37
2018-02-15T07:04:48.261Z,23.23
2018-02-15T07:07:16.841Z,23.27
2018-02-15T07:09:45.386Z,21.50
2018-02-15T07:12:13.948Z,23.43
2018-02-15T07:14:42.503Z,22.73
2018-02-15T07:17:11.046Z,22.10
2018-02-15T07:19:40.354Z,22.17
2018-02-15T07:22:09.665Z,21.53
2018-02-15T07:24:38.222Z,22.47
2018-02-15T07:27:06.743Z,19.40
2018-02-15T07:29:35.289Z,22.00
2018-02-15T07:32:03.844Z,21.47
2018-02-15T07:34:32.363Z,22.50
2018-02-15T07:37:01.706Z,21.97
2018-02-15T07:39:30.222Z,23.77
2018-02-15T07:41:58.782Z,22.93
2018-02-15T07:44:27.348Z,20.93
2018-02-15T07:46:55.597Z,22.50
2018-02-15T07:49:24.019Z,24.80
2018-02-15T07:51:52.357Z,19.87
2018-02-15T07:54:20.726Z,17.97
2018-02-15T07:56:49.889Z,19.93
2018-02-15T07:59:18.279Z,21.83
2018-02-15T08:01:46.847Z,21.10
2018-02-15T08:04:15.379Z,28.30
2018-02-15T08:06:44.046Z,20.40
2018-02-15T08:09:13.378Z,21.07
2018-02-15T08:11:41.894Z,20.60
2018-02-15T08:14:10.467Z,18.47
2018-02-15T08:16:39.031Z,17.97
2018-02-15T08:19:07.568Z,15.43
2018-02-15T08:21:36.904Z,18.37
2018-02-15T08:24:05.420Z,19.00
2018-02-15T08:26:33.982Z,19.03
2018-02-15T08:29:02.534Z,20.13
2018-02-15T08:31:31.204Z,18.90
2018-02-15T08:34:00.498Z,19.73
2018-02-15T08:36:29.082Z,20.10
2018-02-15T08:38:57.730Z,17.73
2018-02-15T08:41:26.280Z,20.80
2018-02-15T08:43:54.836Z,19.97
2018-02-15T08:46:23.395Z,19.97
2018-02-15T08:48:51.942Z,19.47
2018-02-15T08:51:20.508Z,20.30
2018-02-15T08:53:49.064Z,17.70
2018-02-15T08:56:18.393Z,19.20
2018-02-15T08:58:46.995Z,20.30
2018-02-15T09:01:15.582Z,21.57
2018-02-15T09:03:44.129Z,19.30
2018-02-15T09:06:12.711Z,18.33
2018-02-15T09:08:42.030Z,17.77
2018-02-15T09:11:11.604Z,18.23
2018-02-15T09:13:41.111Z,17.60
2018-02-15T09:16:09.680Z,18.23
2018-02-15T09:18:38.503Z,18.17
2018-02-15T09:21:07.054Z,17.90
2018-02-15T09:23:35.624Z,20.00
2018-02-15T09:26:04.207Z,21.17
2018-02-15T09:28:33.179Z,19.03
2018-02-15T09:31:01.861Z,19.17
2018-02-15T09:33:30.362Z,19.17
2018-02-15T09:35:59.118Z,20.47
2018-02-15T09:38:27.656Z,21.83
2018-02-15T09:40:56.186Z,21.00
2018-02-15T09:43:24.761Z,21.13
2018-02-15T09:45:53.363Z,20.10
2018-02-15T09:48:21.945Z,18.47
2018-02-15T09:50:54.281Z,19.23
2018-02-15T09:53:23.636Z,19.77
2018-02-15T09:55:52.810Z,26.63
2018-02-15T09:58:21.375Z,19.50
2018-02-15T10:00:49.965Z,22.23
2018-02-15T10:03:19.245Z,21.40
2018-02-15T10:05:47.798Z,22.67
2018-02-15T10:08:16.331Z,22.60
2018-02-15T10:10:44.961Z,22.13
2018-02-15T10:13:13.460Z,21.07
2018-02-15T10:15:41.973Z,21.23
2018-02-15T10:18:10.506Z,20.60
2018-02-15T10:20:39.048Z,21.50
2018-02-15T10:23:08.445Z,20.63
2018-02-15T10:25:36.936Z,22.33
2018-02-15T10:28:05.724Z,21.67
2018-02-15T10:30:34.224Z,21.63
2018-02-15T10:33:02.727Z,21.00
2018-02-15T10:35:31.202Z,24.33
2018-02-15T10:37:59.697Z,20.73
2018-02-15T10:40:28.163Z,22.30
2018-02-15T10:42:56.652Z,19.27
2018-02-15T10:45:25.140Z,18.70
2018-02-15T10:47:53.605Z,19.70
2018-02-15T10:50:22.090Z,20.17
2018-02-15T10:52:50.562Z,18.93
2018-02-15T10:55:19.125Z,18.67
2018-02-15T10:57:47.614Z,16.67
2018-02-15T11:00:15.761Z,18.23
2018-02-15T11:02:55.047Z,18.57
2018-02-15T11:05:30.058Z,19.93
2018-02-15T11:07:58.609Z,17.60
2018-02-15T11:10:27.200Z,16.27
2018-02-15T11:12:55.757Z,19.80
2018-02-15T11:15:24.283Z,17.90
2018-02-15T11:17:52.903Z,18.83
2018-02-15T11:20:22.041Z,18.80
2018-02-15T11:22:50.588Z,19.00
2018-02-15T11:25:19.958Z,18.83
2018-02-15T11:27:48.518Z,19.37
2018-02-15T11:30:17.085Z,17.47
2018-02-15T11:32:46.442Z,19.77
2018-02-15T11:35:15.036Z,20.20
2018-02-15T11:37:43.622Z,18.20
2018-02-15T11:40:12.953Z,19.33
2018-02-15T11:42:41.515Z,17.37
2018-02-15T11:45:10.033Z,17.60
2018-02-15T11:47:39.644Z,18.17
2018-02-15T11:50:10.138Z,18.87
2018-02-15T11:52:38.702Z,17.00
2018-02-15T11:55:07.298Z,17.93
2018-02-15T11:57:35.858Z,18.57
2018-02-15T12:00:03.849Z,18.37
2018-02-15T12:02:33.142Z,17.73
2018-02-15T12:05:02.486Z,18.13
2018-02-15T12:07:31.801Z,17.77
2018-02-15T12:10:00.342Z,18.50
2018-02-15T12:12:28.898Z,18.00
2018-02-15T12:14:57.455Z,17.20
2018-02-15T12:17:26.837Z,17.70
2018-02-15T12:19:55.403Z,19.47
2018-02-15T12:22:23.978Z,22.17
2018-02-15T12:24:52.529Z,21.23
2018-02-15T12:27:26.464Z,21.27
2018-02-15T12:29:55.062Z,20.20
2018-02-15T12:32:23.654Z,18.23
2018-02-15T12:34:52.154Z,18.77
2018-02-15T12:37:20.690Z,21.30
2018-02-15T12:39:49.471Z,22.90
2018-02-15T12:42:18.793Z,19.93
2018-02-15T12:44:47.370Z,19.27
2018-02-15T12:47:15.801Z,20.20
2018-02-15T12:49:44.355Z,19.87
2018-02-15T12:52:12.945Z,21.17
2018-02-15T12:54:41.480Z,20.87
2018-02-15T12:57:10.809Z,18.50
2018-02-15T12:59:39.392Z,18.90
2018-02-15T13:02:07.987Z,18.43
2018-02-15T13:04:36.496Z,19.53
2018-02-15T13:07:05.134Z,21.00
2018-02-15T13:09:34.656Z,20.07
2018-02-15T13:12:03.234Z,18.50
2018-02-15T13:14:31.795Z,21.03
2018-02-15T13:16:59.757Z,20.63
2018-02-15T13:19:40.339Z,22.83
2018-02-15T13:22:19.903Z,26.30
2018-02-15T13:24:48.459Z,29.23
2018-02-15T13:27:17.019Z,22.07
2018-02-15T13:29:46.306Z,20.80
2018-02-15T13:32:14.851Z,20.87
2018-02-15T13:34:44.194Z,21.10
2018-02-15T13:37:12.939Z,19.43
2018-02-15T13:39:41.469Z,19.17
2018-02-15T13:42:10.770Z,22.97
2018-02-15T13:44:40.088Z,23.97
2018-02-15T13:47:09.407Z,22.60
2018-02-15T13:49:40.421Z,23.80
2018-02-15T13:52:09.974Z,20.93
2018-02-15T13:54:38.537Z,21.80
2018-02-15T13:57:06.821Z,24.93
2018-02-15T13:59:35.371Z,22.10
2018-02-15T14:02:04.697Z,19.97
2018-02-15T14:04:33.240Z,20.87
2018-02-15T14:07:02.761Z,23.13
2018-02-15T14:09:31.659Z,25.30
2018-02-15T14:12:00.371Z,26.40
2018-02-15T14:14:30.090Z,23.57
2018-02-15T14:16:58.666Z,22.53
2018-02-15T14:19:27.196Z,21.23
2018-02-15T14:21:56.513Z,22.07
2018-02-15T14:24:25.672Z,22.57
2018-02-15T14:26:54.206Z,28.87
2018-02-15T14:29:22.746Z,24.87
2018-02-15T14:31:51.313Z,20.93
2018-02-15T14:34:19.838Z,22.77
2018-02-15T14:36:49.120Z,22.13
2018-02-15T14:39:17.662Z,23.90
2018-02-15T14:41:46.252Z,26.83
2018-02-15T14:44:14.766Z,26.00
2018-02-15T14:46:43.303Z,23.50
2018-02-15T14:49:11.860Z,26.60
2018-02-15T14:51:40.414Z,28.77
2018-02-15T14:54:08.986Z,25.17
2018-02-15T14:56:37.500Z,23.33
2018-02-15T14:59:16.660Z,27.23
2018-02-15T15:01:45.189Z,24.67
2018-02-15T15:04:13.738Z,23.93
2018-02-15T15:06:42.300Z,23.17
2018-02-15T15:09:10.825Z,25.87
2018-02-15T15:11:39.386Z,26.70
2018-02-15T15:14:07.923Z,26.17
2018-02-15T15:16:37.228Z,37.53
2018-02-15T15:19:06.532Z,33.87
2018-02-15T15:21:35.112Z,27.93
2018-02-15T15:24:03.665Z,27.73
2018-02-15T15:26:37.579Z,33.13
2018-02-15T15:29:16.057Z,35.60
2018-02-15T15:31:44.610Z,33.93
2018-02-15T15:34:13.108Z,30.47
2018-02-15T15:36:44.804Z,29.73
2018-02-15T15:39:13.346Z,31.00
2018-02-15T15:41:41.869Z,28.67
2018-02-15T15:44:10.434Z,33.10
2018-02-15T15:46:39.000Z,32.83
2018-02-15T15:49:07.687Z,30.60
2018-02-15T15:51:36.221Z,37.10
2018-02-15T15:54:05.607Z,38.30
2018-02-15T15:56:34.174Z,33.13
2018-02-15T15:59:02.691Z,29.07
2018-02-15T16:01:32.026Z,31.67
2018-02-15T16:04:00.636Z,31.10
2018-02-15T16:06:29.229Z,38.60
2018-02-15T16:08:57.843Z,31.70
2018-02-15T16:11:26.394Z,33.67
2018-02-15T16:13:54.949Z,29.27
2018-02-15T16:16:23.474Z,32.40
2018-02-15T16:18:52.023Z,34.93
2018-02-15T16:21:20.577Z,29.30
2018-02-15T16:23:49.082Z,33.83
2018-02-15T16:26:17.612Z,33.43
2018-02-15T16:28:46.141Z,30.93
2018-02-15T16:31:14.693Z,31.27
2018-02-15T16:33:44.013Z,31.37
2018-02-15T16:36:28.931Z,30.83
2018-02-15T16:38:58.247Z,33.53
2018-02-15T16:41:27.589Z,27.07
2018-02-15T16:43:56.122Z,31.17
2018-02-15T16:46:25.389Z,33.10
2018-02-15T16:48:54.005Z,32.70
2018-02-15T16:51:22.579Z,34.47
2018-02-15T16:53:51.171Z,36.73
2018-02-15T16:56:20.491Z,30.33
2018-02-15T16:58:49.053Z,28.43
2018-02-15T17:01:17.630Z,34.33
2018-02-15T17:03:46.208Z,29.93
2018-02-15T17:06:14.782Z,34.90
2018-02-15T17:08:43.367Z,27.13
2018-02-15T17:11:11.919Z,31.73
2018-02-15T17:13:40.415Z,29.83
2018-02-15T17:16:08.958Z,29.90
2018-02-15T17:18:38.560Z,27.03
2018-02-15T17:21:07.115Z,43.90
2018-02-15T17:23:35.706Z,32.83
2018-02-15T17:26:04.257Z,30.73
2018-02-15T17:28:32.879Z,31.37
2018-02-15T17:31:02.208Z,30.70
2018-02-15T17:36:03.081Z,32.43
2018-02-15T17:38:31.621Z,33.20
2018-02-15T17:41:00.211Z,30.37
2018-02-15T17:43:29.555Z,31.23
2018-02-15T17:45:58.091Z,35.33
2018-02-15T17:48:26.863Z,32.63
2018-02-15T17:50:57.746Z,32.33
2018-02-15T17:53:26.366Z,32.40
2018-02-15T17:55:56.718Z,42.37
2018-02-15T17:58:26.610Z,31.70
2018-02-15T18:00:55.293Z,28.10
2018-02-15T18:03:23.867Z,35.40
2018-02-15T18:05:52.466Z,27.83
2018-02-15T18:08:21.067Z,28.83
2018-02-15T18:10:50.456Z,31.80
2018-02-15T18:13:19.983Z,31.97
2018-02-15T18:15:48.577Z,32.17
2018-02-15T18:18:17.188Z,33.63
2018-02-15T18:20:45.709Z,30.80
2018-02-15T18:23:14.308Z,25.73
2018-02-15T18:25:43.684Z,32.93
2018-02-15T18:28:12.257Z,34.43
2018-02-15T18:30:40.901Z,37.73
2018-02-15T18:33:09.517Z,35.50
2018-02-15T18:35:38.123Z,31.43
2018-02-15T18:38:06.753Z,28.90
2018-02-15T18:40:35.290Z,29.27
2018-02-15T18:43:03.877Z,31.30
2018-02-15T18:45:32.464Z,31.13
2018-02-15T18:48:01.071Z,27.83
2018-02-15T18:50:29.642Z,27.73
2018-02-15T18:52:59.003Z,26.80
2018-02-15T18:55:27.571Z,34.97
2018-02-15T18:57:56.170Z,44.97
2018-02-15T19:00:24.742Z,46.00
2018-02-15T19:02:53.247Z,43.07
2018-02-15T19:05:21.826Z,39.73
2018-02-15T19:07:50.380Z,39.43
2018-02-15T19:10:18.958Z,29.23
2018-02-15T19:12:47.538Z,22.93
2018-02-15T19:15:16.039Z,32.57
2018-02-15T19:17:44.603Z,53.03
2018-02-15T19:20:13.166Z,41.47
2018-02-15T19:22:41.799Z,36.23
2018-02-15T19:25:10.423Z,47.43
2018-02-15T19:27:39.702Z,53.03
2018-02-15T19:30:08.243Z,46.53
2018-02-15T19:32:36.847Z,46.50
2018-02-15T19:35:05.422Z,40.13
2018-02-15T19:37:33.999Z,33.90
2018-02-15T19:40:02.574Z,36.70
2018-02-15T19:42:31.326Z,41.43
2018-02-15T19:45:00.621Z,38.87
2018-02-15T19:47:30.185Z,37.43
2018-02-15T19:49:58.781Z,30.17
2018-02-15T19:52:27.329Z,34.20
2018-02-15T19:54:55.962Z,29.43
2018-02-15T19:57:27.574Z,36.07
2018-02-15T19:59:56.196Z,39.00
2018-02-15T20:02:24.845Z,41.03
2018-02-15T20:04:53.431Z,38.47
2018-02-15T20:07:22.263Z,33.27
2018-02-15T20:09:51.624Z,31.93
2018-02-15T20:12:20.241Z,31.43
2018-02-15T20:14:48.809Z,29.30
2018-02-15T20:17:17.330Z,29.13
2018-02-15T20:19:52.299Z,30.57
2018-02-15T20:22:20.890Z,27.10
2018-02-15T20:24:49.503Z,27.63
2018-02-15T20:27:23.519Z,32.27
2018-02-15T20:29:52.070Z,32.23
2018-02-15T20:32:20.646Z,30.70
2018-02-15T20:34:49.230Z,32.33
2018-02-15T20:37:17.776Z,35.97
2018-02-15T20:39:51.918Z,41.03
2018-02-15T20:42:21.330Z,40.13
2018-02-15T20:44:50.051Z,40.43
2018-02-15T20:47:19.219Z,36.33
2018-02-15T20:53:07.435Z,40.50
2018-02-15T20:55:45.741Z,34.93
2018-02-15T20:58:15.023Z,39.97
2018-02-15T21:00:43.572Z,36.47
2018-02-15T21:03:12.065Z,32.47
2018-02-15T21:05:40.646Z,34.03
2018-02-15T21:08:09.404Z,34.20
2018-02-15T21:10:37.920Z,32.90
2018-02-15T21:13:06.209Z,29.30
2018-02-15T21:15:34.809Z,32.60
2018-02-15T21:18:03.230Z,37.93
2018-02-15T21:20:31.788Z,41.23
2018-02-15T21:23:01.261Z,46.87
2018-02-15T21:25:29.864Z,37.70
2018-02-15T21:27:59.157Z,36.53
2018-02-15T21:30:39.202Z,30.00
2018-02-15T21:33:07.834Z,28.20
2018-02-15T21:35:36.414Z,30.07
2018-02-15T21:38:05.013Z,32.87
2018-02-15T21:40:33.611Z,33.60
2018-02-15T21:43:02.157Z,34.67
2018-02-15T21:45:30.731Z,38.77
2018-02-15T21:47:59.288Z,40.93
2018-02-15T21:50:27.903Z,42.60
2018-02-15T21:52:56.676Z,43.70
2018-02-15T21:55:25.986Z,38.23
2018-02-15T21:57:54.571Z,40.37
2018-02-15T22:00:23.934Z,40.33
2018-02-15T22:02:52.498Z,35.00
2018-02-15T22:05:21.083Z,42.10
2018-02-15T22:07:49.615Z,40.47
2018-02-15T22:10:18.961Z,38.43
2018-02-15T22:12:47.543Z,34.17
2018-02-15T22:15:16.125Z,36.50
2018-02-15T22:17:44.882Z,38.83
2018-02-15T22:20:13.458Z,39.07
2018-02-15T22:22:41.960Z,39.83
2018-02-15T22:25:10.455Z,38.33
2018-02-15T22:27:38.918Z,37.53
2018-02-15T22:30:07.414Z,44.30
2018-02-15T22:32:35.881Z,38.33
2018-02-15T22:35:04.384Z,36.77
2018-02-15T22:37:32.869Z,39.70
2018-02-15T22:40:01.352Z,45.07
2018-02-15T22:42:29.872Z,44.17
2018-02-15T22:44:58.370Z,42.80
2018-02-15T22:47:27.629Z,41.40
2018-02-15T22:49:56.126Z,36.57
2018-02-15T22:52:24.587Z,36.33
2018-02-15T22:54:53.086Z,32.70
2018-02-15T22:57:21.554Z,32.10
2018-02-15T22:59:50.055Z,33.23
2018-02-15T23:02:18.553Z,32.70
2018-02-15T23:04:47.790Z,33.13
2018-02-15T23:07:16.313Z,31.60
2018-02-15T23:09:44.779Z,31.60
2018-02-15T23:12:14.467Z,29.33
2018-02-15T23:14:43.169Z,27.47
2018-02-15T23:17:11.637Z,28.73
2018-02-15T23:19:40.117Z,27.90
2018-02-15T23:22:09.896Z,26.10
2018-02-15T23:24:38.386Z,26.63
2018-02-15T23:27:06.887Z,24.70
2018-02-15T23:29:35.957Z,23.93
2018-02-15T23:32:04.445Z,23.70
2018-02-15T23:34:32.916Z,27.83
2018-02-15T23:37:01.445Z,29.37
2018-02-15T23:39:29.932Z,28.93
2018-02-15T23:41:58.395Z,32.37
2018-02-15T23:44:26.883Z,35.97
2018-02-15T23:46:55.383Z,36.80
2018-02-15T23:49:23.874Z,38.17
2018-02-15T23:51:53.177Z,37.67
2018-02-15T23:54:21.646Z,34.63
2018-02-15T23:56:50.145Z,38.93
2018-02-15T23:59:19.390Z,33.10
